Time;durP1;ratioP1;P1;durP2;ratioP2;P2;SDS_P1;SDS_P2;PMS_P1;PMS_P2;Temp;Humidity;BMP_temperature;BMP_pressure;BME280_temperature;BME280_humidity;BME280_pressure;Samples;Min_cycle;Max_cycle;Signal;HPM_P1;HPM_P2
2024/01/04 00:00:29;;;;;;;;;;;6.50;99.90;;;;;;4982978;28;19924;-72
2024/01/04 00:02:55;;;;;;;;;;;6.40;99.90;;;;;;4968476;28;19924;-73
2024/01/04 00:05:21;;;;;;;;;;;6.40;99.90;;;;;;5009444;28;19928;-71
2024/01/04 00:07:47;;;;;;;;;;;6.30;99.90;;;;;;4970414;28;19947;-72
2024/01/04 00:10:14;;;;;;;;;;;6.30;99.90;;;;;;4976057;28;20311;-72
2024/01/04 00:12:41;;;;;;;;;;;6.30;99.90;;;;;;4975592;28;19932;-72
2024/01/04 00:15:07;;;;;;;;;;;6.20;99.90;;;;;;4984968;28;19936;-71
2024/01/04 00:17:33;;;;;;;;;;;6.20;99.90;;;;;;4957876;28;20427;-71
2024/01/04 00:19:59;;;;;;;;;;;6.20;99.90;;;;;;4982475;28;19940;-71
2024/01/04 00:22:26;;;;;;;;;;;6.20;99.90;;;;;;4975794;28;19929;-71
2024/01/04 00:24:52;;;;;;;;;;;6.10;99.90;;;;;;5000234;28;20431;-71
2024/01/04 00:27:18;;;;;;;;;;;6.10;99.90;;;;;;4979179;28;19924;-72
2024/01/04 00:29:44;;;;;;;;;;;6.10;99.90;;;;;;4991762;28;19925;-71
2024/01/04 00:32:10;;;;;;;;;;;6.10;99.90;;;;;;4987029;28;20609;-72
2024/01/04 00:34:36;;;;;;;;;;;6.10;99.90;;;;;;5015723;28;19944;-72
2024/01/04 00:37:02;;;;;;;;;;;6.10;99.90;;;;;;4965000;28;19924;-71
2024/01/04 00:39:28;;;;;;;;;;;6.00;99.90;;;;;;4995135;28;21030;-72
2024/01/04 00:41:54;;;;;;;;;;;6.00;99.90;;;;;;4973354;28;19925;-72
2024/01/04 00:44:20;;;;;;;;;;;5.90;99.90;;;;;;4997371;28;19929;-71
2024/01/04 00:46:45;;;;;;;;;;;5.90;99.90;;;;;;4956693;28;20060;-72
2024/01/04 00:49:11;;;;;;;;;;;5.90;99.90;;;;;;5011846;28;19932;-71
2024/01/04 00:51:37;;;;;;;;;;;5.90;99.90;;;;;;4939859;28;19924;-71
2024/01/04 00:54:03;;;;;;;;;;;5.90;99.90;;;;;;5014676;28;20415;-71
2024/01/04 00:56:33;;;;;;;;;;;5.90;99.90;;;;;;4980745;28;20569;-72
2024/01/04 00:59:00;;;;;;;;;;;5.90;99.90;;;;;;4996837;28;20414;-72
2024/01/04 01:01:26;;;;;;;;;;;5.80;99.90;;;;;;4976617;28;19931;-72
2024/01/04 01:03:52;;;;;;;;;;;5.80;99.90;;;;;;4961522;28;19925;-71
2024/01/04 01:06:18;;;;;;;;;;;5.80;99.90;;;;;;4999696;28;19936;-72
2024/01/04 01:08:43;;;;;;;;;;;5.80;99.90;;;;;;4958993;28;19924;-72
2024/01/04 01:11:09;;;;;;;;;;;5.80;99.90;;;;;;4980322;28;20285;-72
2024/01/04 01:13:35;;;;;;;;;;;5.80;99.90;;;;;;4968100;28;19968;-72
2024/01/04 01:16:01;;;;;;;;;;;5.80;99.90;;;;;;4999094;28;19931;-71
2024/01/04 01:18:28;;;;;;;;;;;5.80;99.90;;;;;;4982285;28;20648;-71
2024/01/04 01:20:54;;;;;;;;;;;5.80;99.90;;;;;;4998676;28;19925;-72
2024/01/04 01:23:20;;;;;;;;;;;5.80;99.90;;;;;;4965615;28;19928;-72
2024/01/04 01:25:46;;;;;;;;;;;5.90;99.90;;;;;;4999246;28;19929;-72
2024/01/04 01:28:12;;;;;;;;;;;5.90;99.90;;;;;;4981449;28;19931;-71
2024/01/04 01:30:37;;;;;;;;;;;5.90;99.90;;;;;;4981419;28;20685;-72
2024/01/04 01:33:03;;;;;;;;;;;5.80;99.90;;;;;;4980906;28;19924;-72
2024/01/04 01:35:29;;;;;;;;;;;5.90;99.90;;;;;;5001424;28;19929;-71
2024/01/04 01:37:55;;;;;;;;;;;5.90;99.90;;;;;;4971909;28;19924;-72
2024/01/04 01:40:21;;;;;;;;;;;5.90;99.90;;;;;;4985510;28;19925;-72
2024/01/04 01:42:47;;;;;;;;;;;5.80;99.90;;;;;;4978239;28;20042;-72
2024/01/04 01:45:14;;;;;;;;;;;5.80;99.90;;;;;;5005964;28;19940;-72
2024/01/04 01:47:40;;;;;;;;;;;5.60;99.90;;;;;;4980126;28;20766;-72
2024/01/04 01:50:07;;;;;;;;;;;5.60;99.90;;;;;;5005389;28;20908;-71
2024/01/04 01:52:34;;;;;;;;;;;5.50;99.90;;;;;;4966956;28;19932;-71
2024/01/04 01:55:01;;;;;;;;;;;5.40;99.90;;;;;;4998559;28;19955;-72
2024/01/04 01:57:27;;;;;;;;;;;5.40;99.90;;;;;;4959512;28;19929;-70
2024/01/04 01:59:53;;;;;;;;;;;5.40;99.90;;;;;;4989745;28;20900;-70
2024/01/04 02:02:19;;;;;;;;;;;5.40;99.90;;;;;;4976404;28;19924;-71
2024/01/04 02:04:45;;;;;;;;;;;5.40;99.90;;;;;;4992322;28;20034;-71
2024/01/04 02:07:11;;;;;;;;;;;5.50;99.90;;;;;;4973545;28;19948;-71
2024/01/04 02:09:37;;;;;;;;;;;5.50;99.90;;;;;;5008746;28;19952;-70
2024/01/04 02:12:06;;;;;;;;;;;5.50;99.90;;;;;;4948284;28;19929;-71
2024/01/04 02:14:32;;;;;;;;;;;5.50;99.90;;;;;;4981066;28;19931;-72
2024/01/04 02:16:58;;;;;;;;;;;5.50;99.90;;;;;;4972054;28;19932;-72
2024/01/04 02:19:26;;;;;;;;;;;5.50;99.90;;;;;;5010195;28;19924;-72
2024/01/04 02:21:52;;;;;;;;;;;5.50;99.90;;;;;;4968524;28;20652;-70
2024/01/04 02:24:18;;;;;;;;;;;5.50;99.90;;;;;;5011644;28;19935;-71
2024/01/04 02:26:43;;;;;;;;;;;5.50;99.90;;;;;;4985351;28;19954;-71
2024/01/04 02:29:09;;;;;;;;;;;5.50;99.90;;;;;;5010856;28;20119;-71
2024/01/04 02:31:35;;;;;;;;;;;5.50;99.90;;;;;;4951185;28;20406;-71
2024/01/04 02:34:01;;;;;;;;;;;5.50;99.90;;;;;;4997066;28;20410;-70
2024/01/04 02:36:27;;;;;;;;;;;5.50;99.90;;;;;;4993446;28;19946;-71
2024/01/04 02:38:53;;;;;;;;;;;5.50;99.90;;;;;;4983673;28;19924;-71
2024/01/04 02:41:19;;;;;;;;;;;5.50;99.90;;;;;;4984919;28;19925;-71
2024/01/04 02:43:45;;;;;;;;;;;5.50;99.90;;;;;;4988843;28;19931;-71
2024/01/04 02:46:11;;;;;;;;;;;5.50;99.90;;;;;;5001155;28;19933;-73
2024/01/04 02:48:37;;;;;;;;;;;5.50;99.90;;;;;;4971485;28;19925;-72
2024/01/04 02:51:03;;;;;;;;;;;5.50;99.90;;;;;;5018236;28;19929;-71
2024/01/04 02:53:28;;;;;;;;;;;5.40;99.90;;;;;;4988353;28;20589;-71
2024/01/04 02:55:55;;;;;;;;;;;5.40;99.90;;;;;;4984904;28;19975;-72
2024/01/04 02:58:21;;;;;;;;;;;5.40;99.90;;;;;;4988254;28;19936;-71
2024/01/04 03:00:46;;;;;;;;;;;5.40;99.90;;;;;;5003858;28;19929;-71
2024/01/04 03:03:12;;;;;;;;;;;5.30;99.90;;;;;;4991711;28;19924;-71
2024/01/04 03:05:38;;;;;;;;;;;5.30;99.90;;;;;;4989931;28;19928;-71
2024/01/04 03:08:04;;;;;;;;;;;5.30;99.90;;;;;;4969684;28;20051;-71
2024/01/04 03:10:30;;;;;;;;;;;5.20;99.90;;;;;;4990329;28;19924;-71
2024/01/04 03:12:56;;;;;;;;;;;5.10;99.90;;;;;;4981428;28;19930;-71
2024/01/04 03:15:22;;;;;;;;;;;5.10;99.90;;;;;;5010238;28;21018;-74
2024/01/04 03:17:49;;;;;;;;;;;5.10;99.90;;;;;;4979733;28;20678;-75
2024/01/04 03:20:15;;;;;;;;;;;5.10;99.90;;;;;;4991037;28;19924;-75
2024/01/04 03:22:41;;;;;;;;;;;5.10;99.90;;;;;;4979171;28;19931;-75
2024/01/04 03:25:09;;;;;;;;;;;5.00;99.90;;;;;;5007995;28;20940;-74
2024/01/04 03:27:35;;;;;;;;;;;5.10;99.90;;;;;;4959493;28;20422;-74
2024/01/04 03:30:01;;;;;;;;;;;5.00;99.90;;;;;;5004297;28;19924;-73
2024/01/04 03:32:27;;;;;;;;;;;5.00;99.90;;;;;;4980021;28;19924;-75
2024/01/04 03:34:53;;;;;;;;;;;5.00;99.90;;;;;;5008644;28;19950;-74
2024/01/04 03:37:19;;;;;;;;;;;5.00;99.90;;;;;;4983173;28;19929;-74
2024/01/04 03:39:45;;;;;;;;;;;4.90;99.90;;;;;;5012125;28;19941;-74
2024/01/04 03:42:11;;;;;;;;;;;4.90;99.90;;;;;;4978547;28;20441;-73
2024/01/04 03:44:37;;;;;;;;;;;4.80;99.90;;;;;;5012750;28;20345;-74
2024/01/04 03:47:04;;;;;;;;;;;4.80;99.90;;;;;;4974501;28;19928;-74
2024/01/04 03:49:31;;;;;;;;;;;4.70;99.90;;;;;;5008963;28;19928;-74
2024/01/04 03:51:57;;;;;;;;;;;4.80;99.90;;;;;;4976670;28;20478;-74
2024/01/04 03:54:23;;;;;;;;;;;4.70;99.90;;;;;;5004047;28;20011;-73
2024/01/04 03:56:49;;;;;;;;;;;4.70;99.90;;;;;;4963772;28;19934;-74
2024/01/04 03:59:15;;;;;;;;;;;4.70;99.90;;;;;;5003346;28;19924;-74
2024/01/04 04:01:47;;;;;;;;;;;4.60;99.90;;;;;;4974767;28;20394;-74
2024/01/04 04:04:13;;;;;;;;;;;4.60;99.90;;;;;;5014331;28;19932;-74
2024/01/04 04:06:39;;;;;;;;;;;4.50;99.90;;;;;;4973543;28;19928;-74
2024/01/04 04:09:08;;;;;;;;;;;4.60;99.90;;;;;;4998465;28;19963;-74
2024/01/04 04:11:34;;;;;;;;;;;4.50;99.90;;;;;;4973153;28;19968;-75
2024/01/04 04:14:00;;;;;;;;;;;4.50;99.90;;;;;;4999385;28;20008;-74
2024/01/04 04:16:26;;;;;;;;;;;4.50;99.90;;;;;;4991607;28;19936;-73
2024/01/04 04:18:52;;;;;;;;;;;4.50;99.90;;;;;;4964164;28;19925;-75
2024/01/04 04:21:22;;;;;;;;;;;4.40;99.90;;;;;;4982913;28;19931;-74
2024/01/04 04:23:52;;;;;;;;;;;4.40;99.90;;;;;;4969736;28;19932;-73
2024/01/04 04:26:21;;;;;;;;;;;4.40;99.90;;;;;;5002855;28;20410;-74
2024/01/04 04:28:50;;;;;;;;;;;4.30;99.90;;;;;;4988135;28;20534;-74
2024/01/04 04:31:17;;;;;;;;;;;4.30;99.90;;;;;;5000709;28;19924;-73
2024/01/04 04:33:43;;;;;;;;;;;4.30;99.90;;;;;;4976372;28;20800;-75
2024/01/04 04:36:10;;;;;;;;;;;4.30;99.90;;;;;;4999491;28;20407;-73
2024/01/04 04:38:36;;;;;;;;;;;4.30;99.90;;;;;;4988040;28;19924;-73
2024/01/04 04:41:03;;;;;;;;;;;4.20;99.90;;;;;;4982030;28;19925;-73
2024/01/04 04:43:29;;;;;;;;;;;4.20;99.90;;;;;;4968744;28;19932;-73
2024/01/04 04:45:55;;;;;;;;;;;4.20;99.90;;;;;;4981171;28;20216;-73
2024/01/04 04:48:21;;;;;;;;;;;4.30;99.90;;;;;;4987092;28;20000;-73
2024/01/04 04:50:48;;;;;;;;;;;4.30;99.90;;;;;;5001379;28;19929;-74
2024/01/04 04:53:14;;;;;;;;;;;4.30;99.90;;;;;;4983483;28;20952;-74
2024/01/04 04:55:40;;;;;;;;;;;4.30;99.90;;;;;;4983806;28;19929;-74
2024/01/04 04:58:06;;;;;;;;;;;4.30;99.90;;;;;;4985667;28;19928;-73
2024/01/04 05:00:32;;;;;;;;;;;4.30;99.90;;;;;;4991098;28;19925;-75
2024/01/04 05:02:57;;;;;;;;;;;4.30;99.90;;;;;;4977091;28;19928;-73
2024/01/04 05:05:23;;;;;;;;;;;4.40;99.90;;;;;;5003194;28;19924;-74
2024/01/04 05:07:49;;;;;;;;;;;4.40;99.90;;;;;;4984024;28;19929;-74
2024/01/04 05:10:15;;;;;;;;;;;4.40;99.90;;;;;;4990154;28;20384;-74
2024/01/04 05:12:41;;;;;;;;;;;4.40;99.90;;;;;;4987011;28;19930;-74
2024/01/04 05:15:07;;;;;;;;;;;4.50;99.90;;;;;;5017195;28;19931;-74
2024/01/04 05:17:34;;;;;;;;;;;4.50;99.90;;;;;;4969874;28;20429;-73
2024/01/04 05:20:00;;;;;;;;;;;4.50;99.90;;;;;;5000603;28;20865;-74
2024/01/04 05:22:25;;;;;;;;;;;4.50;99.90;;;;;;4987299;28;19925;-74
2024/01/04 05:24:51;;;;;;;;;;;4.50;99.90;;;;;;4996346;28;20219;-74
2024/01/04 05:27:17;;;;;;;;;;;4.50;99.90;;;;;;4974343;28;19941;-74
2024/01/04 05:29:43;;;;;;;;;;;4.50;99.90;;;;;;5002424;28;19951;-74
2024/01/04 05:32:09;;;;;;;;;;;4.50;99.90;;;;;;4954757;28;19929;-74
2024/01/04 05:34:36;;;;;;;;;;;4.50;99.90;;;;;;5010433;28;19928;-73
2024/01/04 05:37:02;;;;;;;;;;;4.50;99.90;;;;;;4979501;28;19932;-75
2024/01/04 05:39:28;;;;;;;;;;;4.50;99.90;;;;;;5013624;28;19935;-74
2024/01/04 05:41:54;;;;;;;;;;;4.50;99.90;;;;;;4976044;28;19930;-74
2024/01/04 05:44:20;;;;;;;;;;;4.50;99.90;;;;;;5015292;28;19928;-73
2024/01/04 05:46:46;;;;;;;;;;;4.50;99.90;;;;;;4975529;28;19929;-73
2024/01/04 05:49:12;;;;;;;;;;;4.50;99.90;;;;;;4997487;28;20760;-74
2024/01/04 05:51:38;;;;;;;;;;;4.50;99.90;;;;;;4988928;28;19924;-74
2024/01/04 05:54:03;;;;;;;;;;;4.50;99.90;;;;;;5014818;28;19925;-73
2024/01/04 05:56:29;;;;;;;;;;;4.50;99.90;;;;;;4984443;28;19928;-74
2024/01/04 05:58:58;;;;;;;;;;;4.50;99.90;;;;;;4991857;28;20788;-74
2024/01/04 06:01:24;;;;;;;;;;;4.40;99.90;;;;;;4966669;28;19924;-74
2024/01/04 06:03:50;;;;;;;;;;;4.50;99.90;;;;;;4981443;28;19925;-73
2024/01/04 06:06:18;;;;;;;;;;;4.40;99.90;;;;;;5004457;28;19929;-74
2024/01/04 06:08:43;;;;;;;;;;;4.40;99.90;;;;;;4989750;28;19957;-74
2024/01/04 06:11:10;;;;;;;;;;;4.40;99.90;;;;;;5012178;28;19924;-73
2024/01/04 06:13:36;;;;;;;;;;;4.40;99.90;;;;;;4946173;28;19925;-74
2024/01/04 06:16:08;;;;;;;;;;;4.40;99.90;;;;;;5010823;28;20564;-73
2024/01/04 06:18:35;;;;;;;;;;;4.30;99.90;;;;;;4994755;28;20028;-73
2024/01/04 06:21:01;;;;;;;;;;;4.30;99.90;;;;;;5014541;28;19953;-73
2024/01/04 06:23:29;;;;;;;;;;;4.20;99.90;;;;;;4995127;28;20980;-74
2024/01/04 06:25:55;;;;;;;;;;;4.20;99.90;;;;;;5007371;28;19924;-74
2024/01/04 06:28:21;;;;;;;;;;;4.20;99.90;;;;;;4990038;28;19962;-73
2024/01/04 06:30:48;;;;;;;;;;;4.20;99.90;;;;;;5007993;28;19936;-76
2024/01/04 06:33:14;;;;;;;;;;;4.20;99.90;;;;;;4986484;28;19924;-74
2024/01/04 06:35:40;;;;;;;;;;;4.20;99.90;;;;;;4991796;28;20472;-73
2024/01/04 06:38:09;;;;;;;;;;;4.20;99.90;;;;;;4984354;28;19925;-74
2024/01/04 06:40:38;;;;;;;;;;;4.20;99.90;;;;;;4990396;28;19924;-73
2024/01/04 06:43:08;;;;;;;;;;;4.10;99.90;;;;;;4976619;28;19931;-73
2024/01/04 06:45:35;;;;;;;;;;;4.10;99.90;;;;;;4987795;28;19924;-74
2024/01/04 06:48:04;;;;;;;;;;;4.10;99.90;;;;;;4986640;28;20207;-73
2024/01/04 06:50:30;;;;;;;;;;;4.10;99.90;;;;;;4977786;28;19952;-72
2024/01/04 06:52:56;;;;;;;;;;;4.10;99.90;;;;;;4976140;28;20855;-73
2024/01/04 06:55:23;;;;;;;;;;;4.10;99.90;;;;;;5008694;28;19928;-73
2024/01/04 06:57:48;;;;;;;;;;;4.10;99.90;;;;;;4985832;28;19929;-74
2024/01/04 07:00:15;;;;;;;;;;;4.10;99.90;;;;;;4993353;28;20528;-73
2024/01/04 07:02:41;;;;;;;;;;;4.10;99.90;;;;;;4976073;28;19996;-74
2024/01/04 07:05:09;;;;;;;;;;;4.00;99.90;;;;;;5003626;28;19928;-73
2024/01/04 07:07:36;;;;;;;;;;;4.10;99.90;;;;;;4985640;28;20004;-72
2024/01/04 07:10:02;;;;;;;;;;;4.10;99.90;;;;;;5003247;28;19928;-72
2024/01/04 07:12:28;;;;;;;;;;;4.00;99.90;;;;;;4976475;28;19929;-73
2024/01/04 07:14:54;;;;;;;;;;;4.00;99.90;;;;;;5005668;28;19932;-73
2024/01/04 07:17:21;;;;;;;;;;;4.00;99.90;;;;;;4957551;28;19929;-74
2024/01/04 07:19:46;;;;;;;;;;;4.00;99.90;;;;;;4979137;28;20568;-74
2024/01/04 07:22:12;;;;;;;;;;;4.00;99.90;;;;;;4963010;28;20035;-73
2024/01/04 07:24:38;;;;;;;;;;;4.00;99.90;;;;;;5008028;28;20070;-75
2024/01/04 07:27:04;;;;;;;;;;;4.00;99.90;;;;;;4954556;28;19928;-74
2024/01/04 07:29:31;;;;;;;;;;;4.00;99.90;;;;;;5016404;28;20687;-74
2024/01/04 07:31:57;;;;;;;;;;;4.00;99.90;;;;;;5000995;28;20448;-75
2024/01/04 07:34:23;;;;;;;;;;;4.00;99.90;;;;;;5029174;28;19929;-73
2024/01/04 07:36:48;;;;;;;;;;;3.90;99.90;;;;;;5004601;28;19936;-75
2024/01/04 07:39:15;;;;;;;;;;;3.90;99.90;;;;;;5034538;28;19931;-72
2024/01/04 07:41:41;;;;;;;;;;;3.80;99.90;;;;;;4996348;28;19952;-74
2024/01/04 07:44:07;;;;;;;;;;;3.80;99.90;;;;;;5010291;28;19925;-73
2024/01/04 07:46:33;;;;;;;;;;;3.70;99.90;;;;;;4976658;28;19928;-72
2024/01/04 07:48:59;;;;;;;;;;;3.60;99.90;;;;;;5015856;28;19931;-73
2024/01/04 07:51:25;;;;;;;;;;;3.60;99.90;;;;;;5002593;28;20962;-74
2024/01/04 07:53:51;;;;;;;;;;;3.60;99.90;;;;;;5000764;28;19928;-72
2024/01/04 07:56:17;;;;;;;;;;;3.60;99.90;;;;;;4988142;28;20341;-74
2024/01/04 07:58:43;;;;;;;;;;;3.60;99.90;;;;;;4984592;28;19929;-73
2024/01/04 08:01:09;;;;;;;;;;;3.60;99.90;;;;;;4990742;28;19947;-73
2024/01/04 08:03:35;;;;;;;;;;;3.60;99.90;;;;;;4992925;28;20115;-73
2024/01/04 08:06:01;;;;;;;;;;;3.60;99.90;;;;;;5004051;28;20948;-73
2024/01/04 08:08:27;;;;;;;;;;;3.70;99.90;;;;;;4976705;28;19936;-73
2024/01/04 08:10:53;;;;;;;;;;;3.70;99.90;;;;;;5004614;28;19924;-73
2024/01/04 08:13:19;;;;;;;;;;;3.70;99.90;;;;;;4968942;28;19925;-73
2024/01/04 08:15:45;;;;;;;;;;;3.70;99.90;;;;;;5009336;28;19924;-74
2024/01/04 08:18:11;;;;;;;;;;;3.70;99.90;;;;;;4992469;28;20050;-73
2024/01/04 08:20:37;;;;;;;;;;;3.70;99.90;;;;;;4986968;28;19924;-73
2024/01/04 08:23:03;;;;;;;;;;;3.60;99.90;;;;;;4951358;28;20700;-74
2024/01/04 08:25:29;;;;;;;;;;;3.60;99.90;;;;;;5023347;28;19925;-74
2024/01/04 08:27:55;;;;;;;;;;;3.60;99.90;;;;;;4993308;28;19928;-74
2024/01/04 08:30:21;;;;;;;;;;;3.60;99.90;;;;;;4985845;28;20003;-74
2024/01/04 08:32:47;;;;;;;;;;;3.70;99.90;;;;;;4980553;28;19929;-73
2024/01/04 08:35:15;;;;;;;;;;;3.70;99.90;;;;;;5006347;28;20589;-76
2024/01/04 08:37:44;;;;;;;;;;;3.60;99.90;;;;;;4971266;28;19924;-74
2024/01/04 08:40:10;;;;;;;;;;;3.60;99.90;;;;;;5014780;28;19932;-73
2024/01/04 08:42:36;;;;;;;;;;;3.60;99.90;;;;;;4969004;28;19924;-73
2024/01/04 08:45:02;;;;;;;;;;;3.60;99.90;;;;;;5023194;28;19932;-73
2024/01/04 08:47:28;;;;;;;;;;;3.60;99.90;;;;;;4999986;28;19935;-74
2024/01/04 08:49:54;;;;;;;;;;;3.60;99.90;;;;;;5035541;28;19929;-73
2024/01/04 08:52:21;;;;;;;;;;;3.60;99.90;;;;;;4971710;28;21205;-73
2024/01/04 08:54:47;;;;;;;;;;;3.70;99.90;;;;;;5007139;28;20531;-72
2024/01/04 08:57:14;;;;;;;;;;;3.70;99.90;;;;;;4979146;28;19992;-73
2024/01/04 08:59:40;;;;;;;;;;;3.80;99.90;;;;;;5018358;28;20499;-73
2024/01/04 09:02:06;;;;;;;;;;;3.90;99.90;;;;;;4981076;28;19925;-73
2024/01/04 09:04:33;;;;;;;;;;;3.90;99.90;;;;;;5022676;28;19929;-73
2024/01/04 09:06:59;;;;;;;;;;;3.90;99.90;;;;;;4969981;28;20852;-74
2024/01/04 09:09:24;;;;;;;;;;;4.00;99.90;;;;;;4985232;28;19925;-73
2024/01/04 09:11:51;;;;;;;;;;;4.00;99.90;;;;;;4975040;28;19936;-73
2024/01/04 09:14:17;;;;;;;;;;;4.10;99.90;;;;;;4985382;28;19925;-74
2024/01/04 09:16:43;;;;;;;;;;;4.10;99.90;;;;;;4975937;28;19935;-73
2024/01/04 09:19:16;;;;;;;;;;;4.10;99.90;;;;;;4997215;28;19924;-73
2024/01/04 09:21:43;;;;;;;;;;;4.10;99.90;;;;;;4968390;28;20583;-74
2024/01/04 09:24:10;;;;;;;;;;;4.20;99.90;;;;;;4992757;28;20629;-73
2024/01/04 09:26:42;;;;;;;;;;;4.20;99.90;;;;;;4970450;28;19924;-73
2024/01/04 09:29:08;;;;;;;;;;;4.30;99.90;;;;;;4995336;28;19925;-71
2024/01/04 09:31:34;;;;;;;;;;;4.30;99.90;;;;;;4982633;28;19935;-73
2024/01/04 09:34:00;;;;;;;;;;;4.30;99.90;;;;;;5012361;28;20188;-73
2024/01/04 09:36:26;;;;;;;;;;;4.40;99.90;;;;;;4991691;28;20482;-73
2024/01/04 09:38:52;;;;;;;;;;;4.50;99.90;;;;;;4977516;28;19928;-73
2024/01/04 09:41:29;;;;;;;;;;;4.50;99.90;;;;;;4996261;28;19936;-74
2024/01/04 09:43:56;;;;;;;;;;;4.50;99.90;;;;;;4957247;28;19931;-73
2024/01/04 09:46:26;;;;;;;;;;;4.60;99.90;;;;;;5014427;28;19952;-73
2024/01/04 09:48:57;;;;;;;;;;;4.60;99.90;;;;;;4970832;28;19956;-73
2024/01/04 09:51:23;;;;;;;;;;;4.50;99.90;;;;;;4980385;28;20648;-73
2024/01/04 09:53:50;;;;;;;;;;;4.50;99.90;;;;;;4963591;28;20538;-73
2024/01/04 09:56:17;;;;;;;;;;;4.50;99.90;;;;;;4994259;28;20020;-73
2024/01/04 09:58:43;;;;;;;;;;;4.50;99.90;;;;;;4948937;28;19929;-74
2024/01/04 10:01:10;;;;;;;;;;;4.60;99.90;;;;;;5001543;28;20175;-73
2024/01/04 10:03:39;;;;;;;;;;;4.60;99.90;;;;;;4982464;28;19956;-73
2024/01/04 10:06:08;;;;;;;;;;;4.60;99.90;;;;;;4997309;28;20491;-74
2024/01/04 10:08:36;;;;;;;;;;;4.70;99.90;;;;;;4948508;28;20411;-73
2024/01/04 10:11:06;;;;;;;;;;;4.80;99.90;;;;;;5012485;28;19924;-72
2024/01/04 10:13:32;;;;;;;;;;;4.90;99.90;;;;;;4952074;28;19929;-73
2024/01/04 10:16:05;;;;;;;;;;;4.90;99.90;;;;;;5011580;28;19925;-73
2024/01/04 10:18:33;;;;;;;;;;;5.00;99.90;;;;;;4982006;28;19929;-75
2024/01/04 10:21:05;;;;;;;;;;;5.00;99.90;;;;;;5010899;28;19935;-73
2024/01/04 10:23:31;;;;;;;;;;;5.10;99.90;;;;;;4977854;28;19932;-73
2024/01/04 10:26:20;;;;;;;;;;;5.10;99.90;;;;;;4988606;28;19932;-73
2024/01/04 10:28:53;;;;;;;;;;;5.20;99.90;;;;;;4980812;28;20481;-74
2024/01/04 10:31:19;;;;;;;;;;;5.40;99.90;;;;;;4993731;28;19935;-72
2024/01/04 10:33:45;;;;;;;;;;;5.40;99.90;;;;;;4965239;28;19935;-72
2024/01/04 10:36:11;;;;;;;;;;;5.50;99.90;;;;;;4959490;28;19929;-74
2024/01/04 10:38:37;;;;;;;;;;;5.50;99.90;;;;;;4982941;28;19928;-73
2024/01/04 10:41:04;;;;;;;;;;;5.40;99.90;;;;;;4996626;28;20939;-72
2024/01/04 10:43:33;;;;;;;;;;;5.40;99.90;;;;;;4984130;28;19924;-73
2024/01/04 10:46:05;;;;;;;;;;;5.30;99.90;;;;;;4982538;28;19939;-73
2024/01/04 10:48:31;;;;;;;;;;;5.30;99.90;;;;;;4945770;28;21041;-73
2024/01/04 10:50:59;;;;;;;;;;;5.40;99.90;;;;;;4999025;28;19936;-73
2024/01/04 10:53:27;;;;;;;;;;;5.40;99.90;;;;;;4981292;28;19924;-72
2024/01/04 10:55:53;;;;;;;;;;;5.40;99.90;;;;;;4986638;28;19932;-72
2024/01/04 10:58:20;;;;;;;;;;;5.60;99.90;;;;;;4984847;28;20960;-73
2024/01/04 11:00:46;;;;;;;;;;;5.70;99.90;;;;;;4980711;28;20347;-73
2024/01/04 11:03:12;;;;;;;;;;;5.80;99.90;;;;;;4986580;28;19929;-72
2024/01/04 11:05:40;;;;;;;;;;;5.90;99.90;;;;;;4998362;28;19973;-68
2024/01/04 11:08:07;;;;;;;;;;;5.90;99.90;;;;;;4982292;28;19980;-70
2024/01/04 11:10:34;;;;;;;;;;;5.80;99.90;;;;;;5001747;28;20033;-71
2024/01/04 11:13:01;;;;;;;;;;;5.80;99.90;;;;;;4980807;28;19955;-73
2024/01/04 11:15:27;;;;;;;;;;;5.70;99.90;;;;;;4982702;28;19951;-73
2024/01/04 11:17:55;;;;;;;;;;;5.60;99.90;;;;;;4984568;28;20713;-72
2024/01/04 11:20:35;;;;;;;;;;;5.60;99.90;;;;;;4995574;28;21252;-72
2024/01/04 11:23:04;;;;;;;;;;;5.60;99.90;;;;;;4950883;28;19975;-72
2024/01/04 11:25:49;;;;;;;;;;;5.50;99.90;;;;;;5019446;28;20899;-72
2024/01/04 11:28:15;;;;;;;;;;;5.50;99.90;;;;;;4979660;28;19929;-72
2024/01/04 11:30:41;;;;;;;;;;;5.40;99.90;;;;;;4997729;28;19924;-73
2024/01/04 11:33:07;;;;;;;;;;;5.40;99.90;;;;;;4979752;28;20018;-73
2024/01/04 11:35:34;;;;;;;;;;;5.40;99.90;;;;;;4994238;28;19989;-73
2024/01/04 11:38:04;;;;;;;;;;;5.40;99.90;;;;;;4962474;28;19924;-73
2024/01/04 11:40:30;;;;;;;;;;;5.40;99.90;;;;;;5002050;28;19925;-72
2024/01/04 11:42:56;;;;;;;;;;;5.40;99.90;;;;;;4964115;28;19932;-72
2024/01/04 11:45:23;;;;;;;;;;;5.50;99.90;;;;;;4978094;28;20225;-73
2024/01/04 11:47:51;;;;;;;;;;;5.50;99.90;;;;;;4970081;28;19936;-72
2024/01/04 11:50:22;;;;;;;;;;;5.50;99.90;;;;;;4999748;28;20214;-72
2024/01/04 11:52:48;;;;;;;;;;;5.50;99.90;;;;;;4973638;28;19931;-73
2024/01/04 11:55:25;;;;;;;;;;;5.50;99.90;;;;;;5002849;28;20487;-72
2024/01/04 11:58:01;;;;;;;;;;;5.50;99.90;;;;;;4976755;28;20402;-71
2024/01/04 12:00:31;;;;;;;;;;;5.50;99.90;;;;;;4996550;28;19924;-72
2024/01/04 12:02:58;;;;;;;;;;;5.60;99.90;;;;;;4964829;28;20271;-72
2024/01/04 12:05:23;;;;;;;;;;;5.60;99.90;;;;;;4999466;28;20339;-72
2024/01/04 12:07:49;;;;;;;;;;;5.60;99.90;;;;;;4975894;28;19939;-73
2024/01/04 12:10:15;;;;;;;;;;;5.60;99.90;;;;;;5001226;28;20050;-72
2024/01/04 12:12:41;;;;;;;;;;;5.50;99.90;;;;;;4964290;28;20038;-72
2024/01/04 12:15:08;;;;;;;;;;;5.50;99.90;;;;;;4953687;28;19932;-73
2024/01/04 12:17:34;;;;;;;;;;;5.50;99.90;;;;;;4966626;28;19931;-72
2024/01/04 12:19:59;;;;;;;;;;;5.60;99.90;;;;;;5000328;28;19924;-72
2024/01/04 12:22:25;;;;;;;;;;;5.60;99.90;;;;;;4970334;28;19924;-73
2024/01/04 12:24:52;;;;;;;;;;;5.70;99.90;;;;;;4997449;28;19924;-72
2024/01/04 12:27:18;;;;;;;;;;;5.80;99.90;;;;;;4950858;28;20553;-73
2024/01/04 12:29:44;;;;;;;;;;;5.80;99.90;;;;;;4999527;28;19924;-72
2024/01/04 12:32:10;;;;;;;;;;;5.80;99.90;;;;;;4974199;28;21067;-72
2024/01/04 12:34:42;;;;;;;;;;;5.70;99.90;;;;;;4988465;28;19924;-72
2024/01/04 12:37:08;;;;;;;;;;;5.70;99.90;;;;;;4965902;28;19925;-73
2024/01/04 12:39:35;;;;;;;;;;;5.60;99.90;;;;;;4987937;28;19924;-73
2024/01/04 12:42:02;;;;;;;;;;;5.60;99.90;;;;;;4973469;28;19924;-73
2024/01/04 12:44:28;;;;;;;;;;;5.60;99.90;;;;;;5008778;28;19924;-72
2024/01/04 12:47:02;;;;;;;;;;;5.60;99.90;;;;;;4972955;28;20286;-73
2024/01/04 12:49:28;;;;;;;;;;;5.60;99.90;;;;;;4988576;28;20032;-73
2024/01/04 12:51:54;;;;;;;;;;;5.70;99.90;;;;;;4983617;28;19925;-72
2024/01/04 12:54:20;;;;;;;;;;;5.70;99.90;;;;;;5011124;28;19929;-73
2024/01/04 12:56:46;;;;;;;;;;;5.70;99.90;;;;;;4983750;28;19929;-71
2024/01/04 12:59:14;;;;;;;;;;;5.60;99.90;;;;;;4990350;28;19929;-71
2024/01/04 13:01:40;;;;;;;;;;;5.70;99.90;;;;;;4966759;28;20003;-72
2024/01/04 13:04:07;;;;;;;;;;;5.70;99.90;;;;;;5006968;28;19937;-72
2024/01/04 13:06:33;;;;;;;;;;;5.70;99.90;;;;;;4948957;28;19985;-72
2024/01/04 13:08:59;;;;;;;;;;;5.70;99.90;;;;;;5008104;28;19929;-73
2024/01/04 13:11:25;;;;;;;;;;;5.70;99.90;;;;;;4991152;28;19929;-73
2024/01/04 13:13:51;;;;;;;;;;;5.80;99.90;;;;;;4970605;28;19945;-73
2024/01/04 13:16:17;;;;;;;;;;;5.80;99.90;;;;;;4997355;28;20402;-73
2024/01/04 13:18:43;;;;;;;;;;;5.80;99.90;;;;;;4965101;28;19928;-73
2024/01/04 13:21:09;;;;;;;;;;;5.80;99.90;;;;;;4991381;28;20578;-72
2024/01/04 13:23:35;;;;;;;;;;;5.80;99.90;;;;;;4980714;28;20564;-72
2024/01/04 13:26:00;;;;;;;;;;;5.80;99.90;;;;;;4993185;28;19931;-72
2024/01/04 13:28:26;;;;;;;;;;;5.80;99.90;;;;;;4979607;28;21000;-71
2024/01/04 13:30:54;;;;;;;;;;;5.80;99.90;;;;;;4997204;28;19931;-72
2024/01/04 13:33:20;;;;;;;;;;;5.80;99.90;;;;;;4964556;28;19951;-73
2024/01/04 13:35:46;;;;;;;;;;;5.90;99.90;;;;;;4997377;28;20948;-73
2024/01/04 13:38:12;;;;;;;;;;;5.90;99.90;;;;;;4983759;28;19929;-73
2024/01/04 13:40:38;;;;;;;;;;;5.90;99.90;;;;;;4999162;28;19935;-73
2024/01/04 13:43:04;;;;;;;;;;;6.00;99.90;;;;;;4978463;28;19928;-72
2024/01/04 13:45:30;;;;;;;;;;;6.00;99.90;;;;;;4996840;28;19977;-72
2024/01/04 13:47:56;;;;;;;;;;;6.00;99.90;;;;;;4967950;28;19933;-73
2024/01/04 13:50:23;;;;;;;;;;;6.00;99.90;;;;;;4994334;28;19925;-72
2024/01/04 13:52:49;;;;;;;;;;;6.10;99.90;;;;;;4976366;28;19925;-74
2024/01/04 13:55:16;;;;;;;;;;;6.10;99.90;;;;;;4982809;28;19940;-72
2024/01/04 13:57:42;;;;;;;;;;;6.10;99.90;;;;;;4966688;28;19925;-72
2024/01/04 14:00:08;;;;;;;;;;;6.10;99.90;;;;;;4995724;28;19931;-71
2024/01/04 14:02:34;;;;;;;;;;;6.10;99.90;;;;;;4959255;28;19947;-72
2024/01/04 14:05:00;;;;;;;;;;;6.00;99.90;;;;;;5001086;28;20687;-72
2024/01/04 14:07:29;;;;;;;;;;;6.00;99.90;;;;;;4975300;28;19932;-72
2024/01/04 14:09:55;;;;;;;;;;;6.00;99.90;;;;;;5002355;28;19925;-72
2024/01/04 14:12:21;;;;;;;;;;;6.00;99.90;;;;;;4961675;28;20001;-72
2024/01/04 14:14:47;;;;;;;;;;;6.00;99.90;;;;;;4993783;28;19938;-71
2024/01/04 14:17:13;;;;;;;;;;;5.90;99.90;;;;;;4975861;28;20190;-73
2024/01/04 14:19:39;;;;;;;;;;;6.00;99.90;;;;;;4983657;28;21196;-72
2024/01/04 14:22:05;;;;;;;;;;;5.90;99.90;;;;;;4939924;28;21035;-72
2024/01/04 14:24:32;;;;;;;;;;;5.80;99.90;;;;;;4990907;28;19984;-72
2024/01/04 14:26:58;;;;;;;;;;;5.70;99.90;;;;;;4970037;28;20406;-71